Home > Products > Valid Products > TAF

000
FTUS43 KFGF 230500
TAFFAR
TAF
KFAR 230520Z 2306/2406 14008KT P6SM SKC
     FM231800 17014G22KT P6SM SCT050
     FM232100 16015G22KT P6SM BKN040
     FM240100 16012KT P6SM VCSH BKN030=



000
FTUS43 KFGF 230500
TAFGFK
TAF
KGFK 230520Z 2306/2406 15006KT P6SM SKC
     FM232200 17015G22KT P6SM BKN050
     FM240200 16012KT P6SM VCSH BKN030=



000
FTUS43 KFGF 222300
TAFFAR
TAF
KFAR 222324Z 2300/2324 17009KT P6SM SKC
     FM231600 17013G20KT P6SM FEW250
     FM232100 16015G22KT P6SM VCSH BKN050=



000
FTUS43 KFGF 222300
TAFGFK
TAF
KGFK 222320Z 2300/2324 19007KT P6SM SKC
     FM232000 17015G22KT P6SM SCT050=



000
FTUS43 KFGF 221700
TAFGFK
TAF
KGFK 221722Z 2218/2318 19009KT P6SM SKC
     FM231600 18013G20KT P6SM FEW250=



000
FTUS43 KFGF 221700
TAFFAR
TAF
KFAR 221722Z 2218/2318 19009KT P6SM SKC
     FM231600 17013G20KT P6SM FEW250=



000
FTUS43 KFGF 221100
TAFFAR
TAF
KFAR 221134Z 2212/2312 19009KT P6SM SKC=



000
FTUS43 KFGF 221100
TAFGFK
TAF
KGFK 221134Z 2212/2312 19009KT P6SM SKC=



000
FTUS43 KFGF 220500
TAFGFK
TAF
KGFK 220520Z 2206/2306 21005KT P6SM SKC
     FM221700 20009KT P6SM SKC
     FM230000 18008KT P6SM SKC=



000
FTUS43 KFGF 220500
TAFFAR
TAF
KFAR 220520Z 2206/2306 VRB03KT P6SM SKC
     FM221700 20009KT P6SM SKC
     FM230000 18008KT P6SM SKC=



000
FTUS43 KFGF 212300
TAFFAR
TAF
KFAR 212320Z 2200/2224 VRB03KT P6SM SKC
     FM221700 20009KT P6SM SKC=



000
FTUS43 KFGF 212300
TAFGFK
TAF
KGFK 212320Z 2200/2224 VRB03KT P6SM SKC
     FM221700 20009KT P6SM SKC=



000
FTUS43 KFGF 212000 AAB
TAFGFK
TAF AMD
KGFK 212010Z 2120/2218 33008KT P6SM BKN040
     FM212200 VRB04KT P6SM SKC=



000
FTUS43 KFGF 211800 AAA
TAFFAR
TAF AMD
KFAR 211853Z 2119/2218 34009KT P6SM BKN035
     FM212300 VRB04KT P6SM SKC=



000
FTUS43 KFGF 211800 AAA
TAFGFK
TAF AMD
KGFK 211852Z 2119/2218 34009KT P6SM BKN035
     FM212300 22004KT P6SM SKC=



000
FTUS43 KFGF 211700
TAFGFK
TAF
KGFK 211720Z 2118/2218 34009KT P6SM BKN020
     FM211900 34009KT P6SM BKN026
     FM220000 22004KT P6SM SKC=



000
FTUS43 KFGF 211700
TAFFAR
TAF
KFAR 211720Z 2118/2218 35008KT P6SM BKN020
     FM211900 34009KT P6SM BKN026
     FM220000 22004KT P6SM SKC=



000
FTUS43 KFGF 211600 AAC
TAFFAR
TAF AMD
KFAR 211635Z 2117/2212 34010KT P6SM BKN014
     FM211800 34009KT P6SM BKN020
     FM220000 22004KT P6SM SKC=



000
FTUS43 KFGF 211600 AAC
TAFGFK
TAF AMD
KGFK 211634Z 2117/2212 34009KT P6SM BKN014
     FM211800 34009KT P6SM BKN020
     FM220000 22004KT P6SM SKC=



000
FTUS43 KFGF 211500 AAB
TAFGFK
TAF AMD
KGFK 211516Z 2115/2212 33011KT P6SM BKN008
     FM211700 34010KT P6SM BKN014
     FM220000 22004KT P6SM SKC=



000
FTUS43 KFGF 211500 AAB
TAFFAR
TAF AMD
KFAR 211516Z 2115/2212 34011KT P6SM BKN009
     FM211700 33011KT P6SM BKN014
     FM220000 22004KT P6SM SKC=



000
FTUS43 KFGF 211400 AAA
TAFFAR
TAF AMD
KFAR 211422Z 2114/2212 33012KT P6SM BKN012
     FM211600 33011KT P6SM BKN020
     FM220000 22004KT P6SM SKC=



000
FTUS43 KFGF 211300 AAA
TAFGFK
TAF AMD
KGFK 211359Z 2114/2212 33008KT P6SM BKN011
     FM211600 34008KT P6SM BKN020
     FM220000 22004KT P6SM SKC=



000
FTUS43 KFGF 211100
TAFFAR
TAF
KFAR 211139Z 2112/2212 30007KT P6SM SKC
      TEMPO 2112/2116 BKN007
     FM211600 33010KT P6SM BKN025
     FM220000 22004KT P6SM SKC=



000
FTUS43 KFGF 211100
TAFGFK
TAF
KGFK 211139Z 2112/2212 30006KT P6SM SKC
      TEMPO 2112/2116 BKN006
     FM211600 34008KT P6SM BKN025
     FM220000 22004KT P6SM SKC=



000
FTUS43 KFGF 210500
TAFFAR
TAF
KFAR 210520Z 2106/2206 32008KT P6SM FEW050 BKN090
     FM211700 33010KT P6SM BKN060
     FM220100 VRB05KT P6SM FEW250=



000
FTUS43 KFGF 210500
TAFGFK
TAF
KGFK 210520Z 2106/2206 34008KT P6SM FEW060 BKN070
     FM211200 32008KT P6SM BKN025
     FM211700 34008KT P6SM BKN050
     FM220100 VRB04KT P6SM FEW250=



000
FTUS43 KFGF 210100 AAA
TAFGFK
TAF AMD
KGFK 210105Z 2101/2124 01008KT P6SM SCT060 BKN100
     FM210300 34008KT P6SM SCT100
     FM211200 32008KT P6SM BKN025
     FM211700 34008KT P6SM SCT100=



000
FTUS43 KFGF 202300
TAFGFK
TAF
KGFK 202320Z 2100/2124 32015G25KT P6SM SHRA SCT080 BKN100
      TEMPO 2100/2102 -TSRA BKN080CB
     FM210300 32008KT P6SM SCT100
     FM211200 32008KT P6SM BKN025
     FM211700 34008KT P6SM SCT100=



000
FTUS43 KFGF 202300
TAFFAR
TAF
KFAR 202320Z 2100/2124 32013KT P6SM FEW050
     FM210200 32008KT P6SM SCT100=



000
FTUS43 KFGF 201700 AAA
TAFGFK
TAF AMD
KGFK 201729Z 2017/2118 VRB40KT 2SM SHRA BKN025
     FM201900 32015G25KT P6SM SKC
     FM210100 32008KT P6SM SKC
     FM211200 32008KT P6SM BKN025=



000
FTUS43 KFGF 201700
TAFGFK
TAF
KGFK 201720Z 2018/2118 VRB25KT 5SM SHRA BKN025
     FM201900 32015G25KT P6SM SKC
     FM210100 32008KT P6SM SKC
     FM211200 32008KT P6SM BKN025=



000
FTUS43 KFGF 201700
TAFFAR
TAF
KFAR 201720Z 2018/2118 VRB25KT 5SM -TSRA BKN030CB
     FM202000 32017G30KT P6SM SKC
     FM210100 32008KT P6SM SKC=



000
FTUS43 KFGF 201300 AAC
TAFGFK
TAF AMD
KGFK 201341Z 2014/2112 25007KT P6SM SCT025
      TEMPO 2014/2016 BKN025
     FM201600 25008KT P6SM BKN250
     FM201900 30015G30KT P6SM -TSRA BKN050CB
     FM202100 32015G25KT P6SM BKN080
     FM210100 32008KT P6SM SCT080=



000
FTUS43 KFGF 201300 AAB
TAFGFK
TAF AMD
KGFK 201330Z 2014/2112 25007KT P6SM BKN020
     FM201600 25008KT P6SM BKN250
     FM201900 30015G30KT P6SM -TSRA BKN050CB
     FM202100 32015G25KT P6SM BKN080
     FM210100 32008KT P6SM SCT080=



000
FTUS43 KFGF 201200 AAA
TAFGFK
TAF AMD
KGFK 201237Z 2013/2112 25007KT P6SM BKN040
     FM201500 25008KT P6SM BKN250
     FM201900 30015G30KT P6SM -TSRA BKN050CB
     FM202100 32015G25KT P6SM BKN080
     FM210100 32008KT P6SM SCT080=



000
FTUS43 KFGF 201100
TAFFAR
TAF
KFAR 201140Z 2012/2112 28005KT P6SM SCT250
     FM201500 25008KT P6SM SCT250
     FM202000 32017G30KT P6SM VCTS BKN060CB
     FM202300 32015G25KT P6SM SCT080
     FM210100 32008KT P6SM SKC=



000
FTUS43 KFGF 201100
TAFGFK
TAF
KGFK 201140Z 2012/2112 25007KT P6SM SCT008
      TEMPO 2012/2015 BKN008
     FM201500 25008KT P6SM BKN250
     FM201900 30015G30KT P6SM -TSRA BKN050CB
     FM202100 32015G25KT P6SM BKN080
     FM210100 32008KT P6SM SCT080=



    US Dept of Commerce
    National Oceanic and Atmospheric Administration
    National Weather Service
    1325 East West Highway
    Silver Spring, MD 20910
    Page Author: NWS Internet Services Team
Disclaimer
Information Quality
Credits
Glossary
Privacy Policy
Freedom of Information Act (FOIA)
About Us
Career Opportunities